createdAt,value
2018-12-16T00:01:47.988Z,0.20
2018-12-16T00:04:16.366Z,0.20
2018-12-16T00:06:45.109Z,0.20
2018-12-16T00:09:13.499Z,0.20
2018-12-16T00:11:41.862Z,0.30
2018-12-16T00:14:10.663Z,0.30
2018-12-16T00:16:39.040Z,0.20
2018-12-16T00:19:07.491Z,0.20
2018-12-16T00:21:35.976Z,0.30
2018-12-16T00:24:04.735Z,0.30
2018-12-16T00:26:44.379Z,0.30
2018-12-16T00:29:12.832Z,0.30
2018-12-16T00:31:41.334Z,0.30
2018-12-16T00:34:09.715Z,0.30
2018-12-16T00:36:38.088Z,0.40
2018-12-16T00:39:07.247Z,0.40
2018-12-16T00:41:35.999Z,0.40
2018-12-16T00:44:05.370Z,0.40
2018-12-16T00:46:33.980Z,0.40
2018-12-16T00:49:02.927Z,0.40
2018-12-16T00:51:31.302Z,0.30
2018-12-16T00:53:59.645Z,0.40
2018-12-16T00:56:28.039Z,0.40
2018-12-16T00:58:56.405Z,0.40
2018-12-16T01:01:24.879Z,0.40
2018-12-16T01:03:53.349Z,0.40
2018-12-16T01:06:21.911Z,0.40
2018-12-16T01:08:50.274Z,0.40
2018-12-16T01:11:18.715Z,0.40
2018-12-16T01:13:47.075Z,0.40
2018-12-16T01:16:15.449Z,0.50
2018-12-16T01:18:44.042Z,0.50
2018-12-16T01:21:12.715Z,0.40
2018-12-16T01:23:41.079Z,0.40
2018-12-16T01:26:10.150Z,0.40
2018-12-16T01:28:38.543Z,0.40
2018-12-16T01:31:06.959Z,0.40
2018-12-16T01:33:35.919Z,0.40
2018-12-16T01:36:04.602Z,0.40
2018-12-16T01:38:32.978Z,0.40
2018-12-16T01:41:01.354Z,0.30
2018-12-16T01:43:29.715Z,0.40
2018-12-16T01:45:58.091Z,0.40
2018-12-16T01:48:26.825Z,0.40
2018-12-16T01:50:55.199Z,0.40
2018-12-16T01:53:23.550Z,0.40
2018-12-16T01:55:52.086Z,0.40
2018-12-16T01:58:20.642Z,0.40
2018-12-16T02:00:48.999Z,0.40
2018-12-16T02:03:17.995Z,0.40
2018-12-16T02:05:46.372Z,0.40
2018-12-16T02:08:14.860Z,0.40
2018-12-16T02:10:43.518Z,0.40
2018-12-16T02:13:11.870Z,0.40
2018-12-16T02:15:40.387Z,0.40
2018-12-16T02:18:09.089Z,0.40
2018-12-16T02:20:37.560Z,0.40
2018-12-16T02:23:06.114Z,0.40
2018-12-16T02:25:34.838Z,0.40
2018-12-16T02:28:03.212Z,0.40
2018-12-16T02:30:31.595Z,0.40
2018-12-16T02:33:00.007Z,0.40
2018-12-16T02:35:28.371Z,0.40
2018-12-16T02:37:56.718Z,0.40
2018-12-16T02:40:25.663Z,0.40
2018-12-16T02:42:54.126Z,0.40
2018-12-16T02:45:22.487Z,0.40
2018-12-16T02:47:51.584Z,0.40
2018-12-16T02:50:20.376Z,0.40
2018-12-16T02:52:48.755Z,0.40
2018-12-16T02:55:17.507Z,0.40
2018-12-16T02:57:45.871Z,0.40
2018-12-16T03:00:14.988Z,0.40
2018-12-16T03:02:43.373Z,0.40
2018-12-16T03:05:11.776Z,0.40
2018-12-16T03:07:40.144Z,0.40
2018-12-16T03:10:09.462Z,0.40
2018-12-16T03:12:37.832Z,0.40
2018-12-16T03:15:06.406Z,0.50
2018-12-16T03:17:34.779Z,0.40
2018-12-16T03:20:03.363Z,0.40
2018-12-16T03:22:31.730Z,0.40
2018-12-16T03:25:00.233Z,0.40
2018-12-16T03:27:28.638Z,0.50
2018-12-16T03:29:57.003Z,0.50
2018-12-16T03:32:25.888Z,0.50
2018-12-16T03:34:54.264Z,0.50
2018-12-16T03:37:22.628Z,0.50
2018-12-16T03:39:51.640Z,0.50
2018-12-16T03:42:20.058Z,0.50
2018-12-16T03:44:48.428Z,0.50
2018-12-16T03:47:17.582Z,0.50
2018-12-16T03:49:45.943Z,0.50
2018-12-16T03:52:14.366Z,0.50
2018-12-16T03:54:43.364Z,0.50
2018-12-16T03:57:11.750Z,0.50
2018-12-16T03:59:40.115Z,0.60
2018-12-16T04:02:08.851Z,0.50
2018-12-16T04:04:37.311Z,0.60
2018-12-16T04:07:05.937Z,0.50
2018-12-16T04:09:34.654Z,0.60
2018-12-16T04:12:03.105Z,0.60
2018-12-16T04:14:31.468Z,0.60
2018-12-16T04:16:59.982Z,0.60
2018-12-16T04:19:28.520Z,0.60
2018-12-16T04:21:56.880Z,0.60
2018-12-16T04:24:25.359Z,0.60
2018-12-16T04:26:53.775Z,0.60
2018-12-16T04:29:22.135Z,0.60
2018-12-16T04:31:50.795Z,0.60
2018-12-16T04:34:19.308Z,0.60
2018-12-16T04:36:47.670Z,0.60
2018-12-16T04:39:16.150Z,0.70
2018-12-16T04:41:44.532Z,0.70
2018-12-16T04:44:12.897Z,0.70
2018-12-16T04:46:41.788Z,0.70
2018-12-16T04:49:10.157Z,0.70
2018-12-16T04:51:38.523Z,0.70
2018-12-16T04:54:07.539Z,0.70
2018-12-16T04:56:35.905Z,0.80
2018-12-16T04:59:04.378Z,0.80
2018-12-16T05:01:33.289Z,0.80
2018-12-16T05:04:01.759Z,0.80
2018-12-16T05:06:30.116Z,0.80
2018-12-16T05:08:58.835Z,0.80
2018-12-16T05:11:27.216Z,0.80
2018-12-16T05:13:55.582Z,0.80
2018-12-16T05:16:24.479Z,0.80
2018-12-16T05:18:52.907Z,0.80
2018-12-16T05:21:21.296Z,0.80
2018-12-16T05:23:50.256Z,0.80
2018-12-16T05:26:18.784Z,0.80
2018-12-16T05:28:47.644Z,0.80
2018-12-16T05:31:16.029Z,0.80
2018-12-16T05:33:44.422Z,0.90
2018-12-16T05:36:12.773Z,0.90
2018-12-16T05:38:41.507Z,0.90
2018-12-16T05:41:09.868Z,0.90
2018-12-16T05:43:38.240Z,0.90
2018-12-16T05:46:06.606Z,0.90
2018-12-16T05:48:35.175Z,0.90
2018-12-16T05:51:03.642Z,0.90
2018-12-16T05:53:32.086Z,0.90
2018-12-16T05:56:00.466Z,0.90
2018-12-16T05:58:28.959Z,0.90
2018-12-16T06:00:57.611Z,0.90
2018-12-16T06:03:25.967Z,0.90
2018-12-16T06:05:55.234Z,0.90
2018-12-16T06:08:23.824Z,1.00
2018-12-16T06:10:52.305Z,0.90
2018-12-16T06:13:20.832Z,1.00
2018-12-16T06:15:49.682Z,1.00
2018-12-16T06:18:19.207Z,1.00
2018-12-16T06:20:47.950Z,1.00
2018-12-16T06:23:21.235Z,1.00
2018-12-16T06:25:51.427Z,1.00
2018-12-16T06:28:19.893Z,1.00
2018-12-16T06:30:48.966Z,1.10
2018-12-16T06:33:17.338Z,1.10
2018-12-16T06:35:45.727Z,1.10
2018-12-16T06:38:14.259Z,1.10
2018-12-16T06:40:42.624Z,1.10
2018-12-16T06:43:10.978Z,1.10
2018-12-16T06:45:39.959Z,1.10
2018-12-16T06:48:08.323Z,1.10
2018-12-16T06:50:36.685Z,1.10
2018-12-16T06:53:05.503Z,1.10
2018-12-16T06:55:34.452Z,1.20
2018-12-16T06:58:02.815Z,1.20
2018-12-16T07:00:31.798Z,1.20
2018-12-16T07:03:00.164Z,1.20
2018-12-16T07:05:28.541Z,1.20
2018-12-16T07:07:56.943Z,1.20
2018-12-16T07:10:25.327Z,1.20
2018-12-16T07:12:53.712Z,1.20
2018-12-16T07:15:22.173Z,1.20
2018-12-16T07:17:50.537Z,1.20
2018-12-16T07:20:18.923Z,1.20
2018-12-16T07:22:47.768Z,1.20
2018-12-16T07:25:16.234Z,1.20
2018-12-16T07:27:44.616Z,1.20
2018-12-16T07:30:13.590Z,1.20
2018-12-16T07:32:42.059Z,1.20
2018-12-16T07:35:10.438Z,1.20
2018-12-16T07:37:38.842Z,1.20
2018-12-16T07:40:07.414Z,1.30
2018-12-16T07:42:35.883Z,1.30
2018-12-16T07:45:04.988Z,1.30
2018-12-16T07:47:33.458Z,1.30
2018-12-16T07:50:01.852Z,1.30
2018-12-16T07:52:30.850Z,1.30
2018-12-16T07:54:59.211Z,1.40
2018-12-16T07:57:27.587Z,1.40
2018-12-16T07:59:56.588Z,1.40
2018-12-16T08:02:25.038Z,1.40
2018-12-16T08:04:53.495Z,1.40
2018-12-16T08:07:21.930Z,1.40
2018-12-16T08:09:50.307Z,1.40
2018-12-16T08:12:18.690Z,1.50
2018-12-16T08:14:47.558Z,1.50
2018-12-16T08:17:15.935Z,1.50
2018-12-16T08:19:44.318Z,1.50
2018-12-16T08:22:13.069Z,1.50
2018-12-16T08:24:41.631Z,1.50
2018-12-16T08:27:09.983Z,1.50
2018-12-16T08:29:38.963Z,1.60
2018-12-16T08:32:07.329Z,1.60
2018-12-16T08:34:35.807Z,1.50
2018-12-16T08:37:04.404Z,1.60
2018-12-16T08:39:32.780Z,1.60
2018-12-16T08:42:01.209Z,1.60
2018-12-16T08:44:30.011Z,1.60
2018-12-16T08:46:58.435Z,1.60
2018-12-16T08:49:26.850Z,1.60
2018-12-16T08:51:55.284Z,1.60
2018-12-16T08:54:30.088Z,1.60
2018-12-16T08:56:55.486Z,1.60
2018-12-16T08:59:23.860Z,1.60
2018-12-16T09:01:52.592Z,1.60
2018-12-16T09:04:21.611Z,1.60
2018-12-16T09:06:49.971Z,1.60
2018-12-16T09:09:18.946Z,1.60
2018-12-16T09:11:47.850Z,1.60
2018-12-16T09:14:16.224Z,1.60
2018-12-16T09:16:46.995Z,1.60
2018-12-16T09:19:16.067Z,1.70
2018-12-16T09:21:44.433Z,1.70
2018-12-16T09:24:12.818Z,1.70
2018-12-16T09:26:41.342Z,1.70
2018-12-16T09:29:09.705Z,1.70
2018-12-16T09:31:38.063Z,1.70
2018-12-16T09:34:06.754Z,1.70
2018-12-16T09:36:35.426Z,1.70
2018-12-16T09:39:06.783Z,1.70
2018-12-16T09:41:35.176Z,1.70
2018-12-16T09:44:03.683Z,1.80
2018-12-16T09:46:32.332Z,1.80
2018-12-16T09:49:00.699Z,1.80
2018-12-16T09:51:29.211Z,1.80
2018-12-16T09:53:57.996Z,1.80
2018-12-16T09:56:27.206Z,1.80
2018-12-16T09:58:55.579Z,1.80
2018-12-16T10:01:25.096Z,1.90
2018-12-16T10:03:53.722Z,1.90
2018-12-16T10:06:22.330Z,1.90
2018-12-16T10:08:50.738Z,1.90
2018-12-16T10:11:19.113Z,2.00
2018-12-16T10:13:47.475Z,2.00
2018-12-16T10:16:16.159Z,2.00
2018-12-16T10:18:44.642Z,2.00
2018-12-16T10:21:13.007Z,2.00
2018-12-16T10:23:41.923Z,2.00
2018-12-16T10:26:10.290Z,2.10
2018-12-16T10:28:38.668Z,2.00
2018-12-16T10:31:07.372Z,2.10
2018-12-16T10:33:35.741Z,2.10
2018-12-16T10:36:04.123Z,2.10
2018-12-16T10:38:33.974Z,2.10
2018-12-16T10:41:02.334Z,2.10
2018-12-16T10:43:30.732Z,2.10
2018-12-16T10:45:59.523Z,2.10
2018-12-16T10:48:27.875Z,2.10
2018-12-16T10:50:56.480Z,2.10
2018-12-16T10:53:25.093Z,2.10
2018-12-16T10:55:53.459Z,2.20
2018-12-16T10:58:22.404Z,2.20
2018-12-16T11:00:56.250Z,2.20
2018-12-16T11:03:24.621Z,2.20
2018-12-16T11:05:53.727Z,2.20
2018-12-16T11:08:22.571Z,2.30
2018-12-16T11:10:51.023Z,2.30
2018-12-16T11:13:19.419Z,2.30
2018-12-16T11:15:47.786Z,2.30
2018-12-16T11:18:16.278Z,2.30
2018-12-16T11:20:45.007Z,2.40
2018-12-16T11:23:13.407Z,2.40
2018-12-16T11:25:46.604Z,2.40
2018-12-16T11:28:15.755Z,2.40
2018-12-16T11:30:44.131Z,2.40
2018-12-16T11:33:12.506Z,2.50
2018-12-16T11:35:40.895Z,2.40
2018-12-16T11:38:09.268Z,2.50
2018-12-16T11:40:38.319Z,2.50
2018-12-16T11:43:07.071Z,2.40
2018-12-16T11:45:35.443Z,2.50
2018-12-16T11:48:04.718Z,2.50
2018-12-16T11:50:33.471Z,2.40
2018-12-16T11:53:01.848Z,2.50
2018-12-16T11:55:31.987Z,2.50
2018-12-16T11:58:00.659Z,2.50
2018-12-16T12:00:29.194Z,2.50
2018-12-16T12:02:57.586Z,2.50
2018-12-16T12:28:01.834Z,2.60
2018-12-16T12:33:08.632Z,2.70
2018-12-16T12:35:37.161Z,2.70
2018-12-16T12:38:05.514Z,2.70
2018-12-16T12:40:33.899Z,2.70
2018-12-16T12:43:02.492Z,2.70
2018-12-16T12:45:30.866Z,2.70
2018-12-16T12:47:59.285Z,2.70
2018-12-16T12:50:27.646Z,2.70
2018-12-16T12:52:56.020Z,2.70
2018-12-16T12:55:26.869Z,2.60
2018-12-16T12:57:54.887Z,2.70
2018-12-16T13:00:23.251Z,2.70
2018-12-16T13:02:52.256Z,2.80
2018-12-16T13:05:20.623Z,2.80
2018-12-16T13:07:49.009Z,2.70
2018-12-16T13:10:17.771Z,2.80
2018-12-16T13:12:46.146Z,2.80
2018-12-16T13:15:14.911Z,2.70
2018-12-16T13:17:43.834Z,2.70
2018-12-16T13:20:12.443Z,2.80
2018-12-16T13:22:41.103Z,2.80
2018-12-16T13:25:20.870Z,2.80
2018-12-16T13:27:49.248Z,2.80
2018-12-16T13:30:17.634Z,2.80
2018-12-16T13:32:46.004Z,2.70
2018-12-16T13:35:14.346Z,2.70
2018-12-16T13:37:42.867Z,2.70
2018-12-16T13:40:12.131Z,2.80
2018-12-16T13:42:40.487Z,2.80
2018-12-16T13:45:09.094Z,2.80
2018-12-16T13:47:37.559Z,2.80
2018-12-16T13:50:09.409Z,2.80
2018-12-16T13:52:38.583Z,2.80
2018-12-16T13:55:11.998Z,2.80
2018-12-16T13:57:44.509Z,2.80
2018-12-16T14:00:13.467Z,2.80
2018-12-16T14:02:41.930Z,2.90
2018-12-16T14:05:10.950Z,2.90
2018-12-16T14:07:39.594Z,2.90
2018-12-16T14:10:08.287Z,2.90
2018-12-16T14:12:37.335Z,2.90
2018-12-16T14:15:05.978Z,2.90
2018-12-16T14:17:34.358Z,2.90
2018-12-16T14:20:02.888Z,2.80
2018-12-16T14:22:32.278Z,2.90
2018-12-16T14:25:00.720Z,2.90
2018-12-16T14:27:33.927Z,3.00
2018-12-16T14:32:57.582Z,3.00
2018-12-16T14:35:33.575Z,3.00
2018-12-16T14:38:09.169Z,3.00
2018-12-16T14:40:38.431Z,3.00
2018-12-16T14:43:07.402Z,3.00
2018-12-16T14:45:35.802Z,3.00
2018-12-16T14:48:04.379Z,3.00
2018-12-16T14:50:33.141Z,3.00
2018-12-16T14:53:01.601Z,3.00
2018-12-16T14:55:30.075Z,3.00
2018-12-16T14:57:59.110Z,3.00
2018-12-16T15:00:27.751Z,3.00
2018-12-16T15:02:56.224Z,3.10
2018-12-16T15:05:24.741Z,3.00
2018-12-16T15:07:53.213Z,3.00
2018-12-16T15:10:21.592Z,3.10
2018-12-16T15:12:50.802Z,3.10
2018-12-16T15:15:19.575Z,3.10
2018-12-16T15:17:48.066Z,3.10
2018-12-16T15:20:16.983Z,3.10
2018-12-16T15:22:46.098Z,3.00
2018-12-16T15:25:14.801Z,3.10
2018-12-16T15:27:43.963Z,3.10
2018-12-16T15:30:12.595Z,3.00
2018-12-16T15:32:40.955Z,3.00
2018-12-16T15:35:09.715Z,3.00
2018-12-16T15:37:38.111Z,3.00
2018-12-16T15:40:07.530Z,3.00
2018-12-16T15:42:36.240Z,3.00
2018-12-16T15:45:06.259Z,3.00
2018-12-16T15:47:34.980Z,3.10
2018-12-16T15:50:04.602Z,3.10
2018-12-16T15:52:33.066Z,3.00
2018-12-16T15:55:05.457Z,3.10
2018-12-16T15:57:34.567Z,3.10
2018-12-16T16:00:06.519Z,3.10
2018-12-16T16:02:34.895Z,3.00
2018-12-16T16:05:04.921Z,3.10
2018-12-16T16:07:33.364Z,3.20
2018-12-16T16:10:01.729Z,3.20
2018-12-16T16:12:31.008Z,3.20
2018-12-16T16:15:00.078Z,3.20
2018-12-16T16:17:28.453Z,3.20
2018-12-16T16:19:56.827Z,3.20
2018-12-16T16:22:25.316Z,3.30
2018-12-16T16:24:53.712Z,3.30
2018-12-16T16:27:23.165Z,3.30
2018-12-16T16:29:53.234Z,3.30
2018-12-16T16:32:21.606Z,3.30
2018-12-16T16:34:50.192Z,3.30
2018-12-16T16:37:18.768Z,3.30
2018-12-16T16:39:47.145Z,3.40
2018-12-16T16:42:15.512Z,3.40
2018-12-16T16:44:44.219Z,3.40
2018-12-16T16:47:12.627Z,3.40
2018-12-16T16:49:41.141Z,3.40
2018-12-16T16:52:10.030Z,3.40
2018-12-16T16:54:38.507Z,3.40
2018-12-16T16:57:06.873Z,3.40
2018-12-16T16:59:35.653Z,3.50
2018-12-16T17:02:04.188Z,3.50
2018-12-16T17:04:32.595Z,3.50
2018-12-16T17:07:01.327Z,3.40
2018-12-16T17:09:30.785Z,3.40
2018-12-16T17:11:59.202Z,3.50
2018-12-16T17:14:27.931Z,3.50
2018-12-16T17:16:56.384Z,3.50
2018-12-16T17:19:24.986Z,3.60
2018-12-16T17:21:54.119Z,3.50
2018-12-16T17:24:22.495Z,3.60
2018-12-16T17:26:50.879Z,3.60
2018-12-16T17:29:19.743Z,3.60
2018-12-16T17:31:48.199Z,3.70
2018-12-16T17:34:17.593Z,3.70
2018-12-16T17:36:46.526Z,3.70
2018-12-16T17:39:15.151Z,3.70
2018-12-16T17:41:43.519Z,3.70
2018-12-16T17:44:12.596Z,3.80
2018-12-16T17:46:41.076Z,3.80
2018-12-16T17:49:09.513Z,3.80
2018-12-16T17:51:38.451Z,3.70
2018-12-16T17:54:06.827Z,3.70
2018-12-16T17:56:37.180Z,3.80
2018-12-16T17:59:06.434Z,3.80
2018-12-16T18:01:34.922Z,3.80
2018-12-16T18:04:05.323Z,3.80
2018-12-16T18:06:34.240Z,3.80
2018-12-16T18:09:02.705Z,3.80
2018-12-16T18:11:31.072Z,3.80
2018-12-16T18:13:59.888Z,3.80
2018-12-16T18:16:28.260Z,3.80
2018-12-16T18:18:56.685Z,3.80
2018-12-16T18:21:25.203Z,3.80
2018-12-16T18:23:53.555Z,3.80
2018-12-16T18:26:22.020Z,3.90
2018-12-16T18:28:50.995Z,3.90
2018-12-16T18:31:19.383Z,3.80
2018-12-16T18:33:47.783Z,3.90
2018-12-16T18:36:16.370Z,3.90
2018-12-16T18:38:44.726Z,3.90
2018-12-16T18:41:13.278Z,3.90
2018-12-16T18:43:41.678Z,3.90
2018-12-16T18:46:10.043Z,3.90
2018-12-16T18:48:38.548Z,3.90
2018-12-16T18:51:07.046Z,3.90
2018-12-16T18:53:35.467Z,3.90
2018-12-16T18:56:04.022Z,3.90
2018-12-16T18:58:32.958Z,3.90
2018-12-16T19:01:01.319Z,3.90
2018-12-16T19:03:29.682Z,3.90
2018-12-16T19:05:58.346Z,3.90
2018-12-16T19:08:26.680Z,3.90
2018-12-16T19:10:55.078Z,3.90
2018-12-16T19:13:23.690Z,3.90
2018-12-16T19:15:52.152Z,3.90
2018-12-16T19:18:21.199Z,3.90
2018-12-16T19:20:50.055Z,3.90
2018-12-16T19:23:18.410Z,3.90
2018-12-16T19:25:47.257Z,3.90
2018-12-16T19:28:15.695Z,3.90
2018-12-16T19:30:44.117Z,3.90
2018-12-16T19:33:12.556Z,3.90
2018-12-16T19:35:41.084Z,3.90
2018-12-16T19:38:09.535Z,3.90
2018-12-16T19:40:37.896Z,4.00
2018-12-16T19:43:06.307Z,4.00
2018-12-16T19:45:34.782Z,3.90
2018-12-16T19:48:03.183Z,4.00
2018-12-16T19:50:31.830Z,3.90
2018-12-16T19:53:00.271Z,4.00
2018-12-16T19:55:29.252Z,4.00
2018-12-16T19:57:58.386Z,4.00
2018-12-16T20:00:26.923Z,4.00
2018-12-16T20:02:55.302Z,4.00
2018-12-16T20:05:23.960Z,4.00
2018-12-16T20:07:52.390Z,4.00
2018-12-16T20:10:20.751Z,4.00
2018-12-16T20:12:49.521Z,4.00
2018-12-16T20:15:17.947Z,4.00
2018-12-16T20:17:46.323Z,4.00
2018-12-16T20:20:14.843Z,4.00
2018-12-16T20:22:43.235Z,4.10
2018-12-16T20:25:11.728Z,4.10
2018-12-16T20:27:41.529Z,4.00
2018-12-16T20:30:10.270Z,4.10
2018-12-16T20:32:39.744Z,4.00
2018-12-16T20:35:08.874Z,4.10
2018-12-16T20:37:38.146Z,4.10
2018-12-16T20:40:07.919Z,4.10
2018-12-16T20:42:36.411Z,4.10
2018-12-16T20:45:06.134Z,4.10
2018-12-16T20:47:34.483Z,4.10
2018-12-16T20:50:03.055Z,4.00
2018-12-16T20:52:32.181Z,4.00
2018-12-16T20:55:00.595Z,4.10
2018-12-16T20:57:29.427Z,4.00
2018-12-16T20:59:57.802Z,4.10
2018-12-16T21:02:26.171Z,4.10
2018-12-16T21:04:55.162Z,4.10
2018-12-16T21:07:23.527Z,4.10
2018-12-16T21:09:52.047Z,4.10
2018-12-16T21:12:25.771Z,4.00
2018-12-16T21:14:59.414Z,4.10
2018-12-16T21:17:33.946Z,4.10
2018-12-16T21:20:02.360Z,4.00
2018-12-16T21:22:30.780Z,4.00
2018-12-16T21:24:59.706Z,4.00
2018-12-16T21:27:28.254Z,4.00
2018-12-16T21:29:56.635Z,4.00
2018-12-16T21:32:25.035Z,4.00
2018-12-16T21:34:53.452Z,4.00
2018-12-16T21:37:21.842Z,4.00
2018-12-16T21:39:50.238Z,4.00
2018-12-16T21:42:18.566Z,3.90
2018-12-16T21:44:46.915Z,3.90
2018-12-16T21:47:15.375Z,3.90
2018-12-16T21:49:43.771Z,3.90
2018-12-16T21:52:12.275Z,3.90
2018-12-16T21:54:40.922Z,3.90
2018-12-16T21:57:09.266Z,3.80
2018-12-16T21:59:37.994Z,3.80
2018-12-16T22:02:06.922Z,3.80
2018-12-16T22:04:35.289Z,3.70
2018-12-16T22:07:03.658Z,3.70
2018-12-16T22:09:32.991Z,3.70
2018-12-16T22:12:01.890Z,3.70
2018-12-16T22:14:30.509Z,3.70
2018-12-16T22:16:58.883Z,3.70
2018-12-16T22:19:27.242Z,3.70
2018-12-16T22:21:55.651Z,3.70
2018-12-16T22:24:24.027Z,3.70
2018-12-16T22:26:52.382Z,3.70
2018-12-16T22:29:20.744Z,3.70
2018-12-16T22:31:49.635Z,3.70
2018-12-16T22:34:18.001Z,3.70
2018-12-16T22:36:46.385Z,3.60
2018-12-16T22:39:16.071Z,3.60
2018-12-16T22:41:44.442Z,3.60
2018-12-16T22:44:12.894Z,3.60
2018-12-16T22:46:41.278Z,3.60
2018-12-16T22:49:09.642Z,3.60
2018-12-16T22:51:38.018Z,3.60
2018-12-16T22:54:06.514Z,3.60
2018-12-16T22:56:34.879Z,3.60
2018-12-16T22:59:03.257Z,3.60
2018-12-16T23:01:32.358Z,3.60
2018-12-16T23:04:00.743Z,3.60
2018-12-16T23:06:29.108Z,3.60
2018-12-16T23:08:58.094Z,3.60
2018-12-16T23:11:26.467Z,3.50
2018-12-16T23:13:54.943Z,3.50
2018-12-16T23:16:23.687Z,3.60
2018-12-16T23:18:52.051Z,3.60
2018-12-16T23:21:20.620Z,3.60
2018-12-16T23:23:50.539Z,3.60
2018-12-16T23:26:18.906Z,3.60
2018-12-16T23:28:47.267Z,3.50
2018-12-16T23:31:15.659Z,3.50
2018-12-16T23:33:44.036Z,3.50
2018-12-16T23:36:12.400Z,3.50
2018-12-16T23:38:40.963Z,3.50
2018-12-16T23:41:09.406Z,3.50
2018-12-16T23:43:37.766Z,3.50
2018-12-16T23:46:08.166Z,3.50
2018-12-16T23:48:36.663Z,3.60
2018-12-16T23:51:05.122Z,3.60
2018-12-16T23:53:33.754Z,3.60
2018-12-16T23:56:02.111Z,3.60
2018-12-16T23:58:30.661Z,3.60
